sensor_id;sensor_type;location;lat;lon;timestamp;P1;durP1;ratioP1;P2;durP2;ratioP2
56043;SDS011;41912;51.022;3.664;2022-12-13T00:01:33;42.05;;;20.08;;
56043;SDS011;41912;51.022;3.664;2022-12-13T00:04:00;49.95;;;21.48;;
56043;SDS011;41912;51.022;3.664;2022-12-13T00:06:28;48.78;;;20.17;;
56043;SDS011;41912;51.022;3.664;2022-12-13T00:08:54;47.90;;;21.23;;
56043;SDS011;41912;51.022;3.664;2022-12-13T00:11:20;47.58;;;20.73;;
56043;SDS011;41912;51.022;3.664;2022-12-13T00:13:46;48.30;;;18.77;;
56043;SDS011;41912;51.022;3.664;2022-12-13T00:16:13;48.50;;;18.88;;
56043;SDS011;41912;51.022;3.664;2022-12-13T00:18:40;40.85;;;19.38;;
56043;SDS011;41912;51.022;3.664;2022-12-13T00:21:07;49.95;;;18.92;;
56043;SDS011;41912;51.022;3.664;2022-12-13T00:23:35;47.15;;;21.10;;
56043;SDS011;41912;51.022;3.664;2022-12-13T00:26:09;47.42;;;19.35;;
56043;SDS011;41912;51.022;3.664;2022-12-13T00:28:36;51.63;;;21.15;;
56043;SDS011;41912;51.022;3.664;2022-12-13T00:31:03;50.17;;;20.65;;
56043;SDS011;41912;51.022;3.664;2022-12-13T00:33:28;47.58;;;20.63;;
56043;SDS011;41912;51.022;3.664;2022-12-13T00:35:54;42.63;;;19.02;;
56043;SDS011;41912;51.022;3.664;2022-12-13T00:38:21;43.70;;;18.67;;
56043;SDS011;41912;51.022;3.664;2022-12-13T00:40:47;47.88;;;21.05;;
56043;SDS011;41912;51.022;3.664;2022-12-13T00:43:12;43.50;;;19.75;;
56043;SDS011;41912;51.022;3.664;2022-12-13T00:45:38;45.90;;;19.50;;
56043;SDS011;41912;51.022;3.664;2022-12-13T00:48:04;45.58;;;19.30;;
56043;SDS011;41912;51.022;3.664;2022-12-13T00:50:30;44.10;;;19.80;;
56043;SDS011;41912;51.022;3.664;2022-12-13T00:52:57;40.85;;;18.92;;
56043;SDS011;41912;51.022;3.664;2022-12-13T00:55:24;55.35;;;20.70;;
56043;SDS011;41912;51.022;3.664;2022-12-13T00:57:50;43.42;;;19.50;;
56043;SDS011;41912;51.022;3.664;2022-12-13T01:00:16;40.83;;;17.90;;
56043;SDS011;41912;51.022;3.664;2022-12-13T01:02:42;46.50;;;19.52;;
56043;SDS011;41912;51.022;3.664;2022-12-13T01:05:08;42.25;;;17.77;;
56043;SDS011;41912;51.022;3.664;2022-12-13T01:07:35;45.00;;;18.15;;
56043;SDS011;41912;51.022;3.664;2022-12-13T01:10:01;40.80;;;18.92;;
56043;SDS011;41912;51.022;3.664;2022-12-13T01:12:27;46.83;;;18.58;;
56043;SDS011;41912;51.022;3.664;2022-12-13T01:14:53;37.55;;;18.40;;
56043;SDS011;41912;51.022;3.664;2022-12-13T01:17:18;44.58;;;18.65;;
56043;SDS011;41912;51.022;3.664;2022-12-13T01:19:44;40.28;;;18.05;;
56043;SDS011;41912;51.022;3.664;2022-12-13T01:22:10;40.65;;;18.08;;
56043;SDS011;41912;51.022;3.664;2022-12-13T01:24:36;41.80;;;18.45;;
56043;SDS011;41912;51.022;3.664;2022-12-13T01:27:03;40.45;;;18.98;;
56043;SDS011;41912;51.022;3.664;2022-12-13T01:29:28;37.45;;;17.20;;
56043;SDS011;41912;51.022;3.664;2022-12-13T01:31:54;40.22;;;18.73;;
56043;SDS011;41912;51.022;3.664;2022-12-13T01:34:21;39.75;;;18.90;;
56043;SDS011;41912;51.022;3.664;2022-12-13T01:36:47;39.05;;;17.00;;
56043;SDS011;41912;51.022;3.664;2022-12-13T01:39:14;34.95;;;15.52;;
56043;SDS011;41912;51.022;3.664;2022-12-13T01:41:44;41.33;;;19.33;;
56043;SDS011;41912;51.022;3.664;2022-12-13T01:47:15;41.97;;;18.15;;
56043;SDS011;41912;51.022;3.664;2022-12-13T01:49:46;38.85;;;17.45;;
56043;SDS011;41912;51.022;3.664;2022-12-13T01:52:12;39.38;;;16.95;;
56043;SDS011;41912;51.022;3.664;2022-12-13T01:54:40;39.05;;;17.20;;
56043;SDS011;41912;51.022;3.664;2022-12-13T01:57:10;42.75;;;17.27;;
56043;SDS011;41912;51.022;3.664;2022-12-13T01:59:37;36.95;;;16.08;;
56043;SDS011;41912;51.022;3.664;2022-12-13T02:02:05;44.15;;;17.27;;
56043;SDS011;41912;51.022;3.664;2022-12-13T02:05:08;39.95;;;17.30;;
56043;SDS011;41912;51.022;3.664;2022-12-13T02:07:40;40.28;;;16.17;;
56043;SDS011;41912;51.022;3.664;2022-12-13T02:10:07;39.30;;;16.77;;
56043;SDS011;41912;51.022;3.664;2022-12-13T02:12:34;38.20;;;17.95;;
56043;SDS011;41912;51.022;3.664;2022-12-13T02:15:02;34.40;;;16.13;;
56043;SDS011;41912;51.022;3.664;2022-12-13T02:22:59;36.30;;;15.93;;
56043;SDS011;41912;51.022;3.664;2022-12-13T02:26:18;37.88;;;15.70;;
56043;SDS011;41912;51.022;3.664;2022-12-13T02:34:35;41.50;;;16.38;;
56043;SDS011;41912;51.022;3.664;2022-12-13T02:43:07;33.55;;;15.32;;
56043;SDS011;41912;51.022;3.664;2022-12-13T02:45:46;37.10;;;16.17;;
56043;SDS011;41912;51.022;3.664;2022-12-13T02:48:16;38.42;;;16.85;;
56043;SDS011;41912;51.022;3.664;2022-12-13T02:50:53;47.13;;;16.30;;
56043;SDS011;41912;51.022;3.664;2022-12-13T02:53:22;41.78;;;16.70;;
56043;SDS011;41912;51.022;3.664;2022-12-13T02:55:49;39.08;;;16.98;;
56043;SDS011;41912;51.022;3.664;2022-12-13T02:58:17;40.05;;;15.65;;
56043;SDS011;41912;51.022;3.664;2022-12-13T03:06:31;37.20;;;16.20;;
56043;SDS011;41912;51.022;3.664;2022-12-13T03:09:05;40.33;;;17.17;;
56043;SDS011;41912;51.022;3.664;2022-12-13T03:12:09;37.07;;;15.93;;
56043;SDS011;41912;51.022;3.664;2022-12-13T03:15:09;40.55;;;16.60;;
56043;SDS011;41912;51.022;3.664;2022-12-13T03:17:42;38.03;;;16.45;;
56043;SDS011;41912;51.022;3.664;2022-12-13T03:20:30;42.13;;;17.55;;
56043;SDS011;41912;51.022;3.664;2022-12-13T03:22:57;42.05;;;18.13;;
56043;SDS011;41912;51.022;3.664;2022-12-13T03:25:24;40.67;;;18.85;;
56043;SDS011;41912;51.022;3.664;2022-12-13T03:27:53;41.67;;;19.35;;
56043;SDS011;41912;51.022;3.664;2022-12-13T03:30:19;42.05;;;19.35;;
56043;SDS011;41912;51.022;3.664;2022-12-13T03:32:45;51.38;;;20.30;;
56043;SDS011;41912;51.022;3.664;2022-12-13T03:35:10;43.03;;;18.55;;
56043;SDS011;41912;51.022;3.664;2022-12-13T03:37:36;42.85;;;18.67;;
56043;SDS011;41912;51.022;3.664;2022-12-13T03:40:02;44.22;;;20.27;;
56043;SDS011;41912;51.022;3.664;2022-12-13T03:42:28;49.42;;;20.83;;
56043;SDS011;41912;51.022;3.664;2022-12-13T03:44:53;44.72;;;19.27;;
56043;SDS011;41912;51.022;3.664;2022-12-13T03:47:19;44.60;;;19.80;;
56043;SDS011;41912;51.022;3.664;2022-12-13T03:49:45;44.03;;;20.75;;
56043;SDS011;41912;51.022;3.664;2022-12-13T03:52:10;42.55;;;20.20;;
56043;SDS011;41912;51.022;3.664;2022-12-13T03:54:36;48.92;;;21.38;;
56043;SDS011;41912;51.022;3.664;2022-12-13T03:57:01;44.70;;;19.55;;
56043;SDS011;41912;51.022;3.664;2022-12-13T03:59:27;41.75;;;20.50;;
56043;SDS011;41912;51.022;3.664;2022-12-13T04:01:53;46.92;;;20.13;;
56043;SDS011;41912;51.022;3.664;2022-12-13T04:04:18;44.05;;;19.45;;
56043;SDS011;41912;51.022;3.664;2022-12-13T04:06:44;43.72;;;20.73;;
56043;SDS011;41912;51.022;3.664;2022-12-13T04:09:10;45.75;;;19.98;;
56043;SDS011;41912;51.022;3.664;2022-12-13T04:11:35;41.88;;;19.90;;
56043;SDS011;41912;51.022;3.664;2022-12-13T04:14:19;49.53;;;19.63;;
56043;SDS011;41912;51.022;3.664;2022-12-13T04:16:45;43.35;;;19.73;;
56043;SDS011;41912;51.022;3.664;2022-12-13T04:19:10;47.03;;;20.05;;
56043;SDS011;41912;51.022;3.664;2022-12-13T04:21:36;43.25;;;19.00;;
56043;SDS011;41912;51.022;3.664;2022-12-13T04:24:02;53.47;;;20.15;;
56043;SDS011;41912;51.022;3.664;2022-12-13T04:26:28;38.08;;;18.65;;
56043;SDS011;41912;51.022;3.664;2022-12-13T04:28:53;47.35;;;18.13;;
56043;SDS011;41912;51.022;3.664;2022-12-13T04:31:19;44.08;;;19.50;;
56043;SDS011;41912;51.022;3.664;2022-12-13T04:33:45;44.13;;;19.35;;
56043;SDS011;41912;51.022;3.664;2022-12-13T04:36:10;45.20;;;20.38;;
56043;SDS011;41912;51.022;3.664;2022-12-13T04:38:43;43.80;;;19.15;;
56043;SDS011;41912;51.022;3.664;2022-12-13T04:41:13;37.25;;;18.05;;
56043;SDS011;41912;51.022;3.664;2022-12-13T04:43:40;43.67;;;20.70;;
56043;SDS011;41912;51.022;3.664;2022-12-13T04:46:06;44.25;;;18.65;;
56043;SDS011;41912;51.022;3.664;2022-12-13T04:48:32;42.03;;;18.63;;
56043;SDS011;41912;51.022;3.664;2022-12-13T04:50:58;37.83;;;17.25;;
56043;SDS011;41912;51.022;3.664;2022-12-13T04:53:25;51.05;;;19.02;;
56043;SDS011;41912;51.022;3.664;2022-12-13T04:55:51;43.95;;;18.20;;
56043;SDS011;41912;51.022;3.664;2022-12-13T04:58:20;38.85;;;18.23;;
56043;SDS011;41912;51.022;3.664;2022-12-13T05:00:45;42.17;;;17.90;;
56043;SDS011;41912;51.022;3.664;2022-12-13T05:03:11;46.20;;;18.90;;
56043;SDS011;41912;51.022;3.664;2022-12-13T05:05:37;50.00;;;18.48;;
56043;SDS011;41912;51.022;3.664;2022-12-13T05:08:04;40.17;;;17.80;;
56043;SDS011;41912;51.022;3.664;2022-12-13T05:10:30;43.20;;;19.38;;
56043;SDS011;41912;51.022;3.664;2022-12-13T05:12:57;43.20;;;17.65;;
56043;SDS011;41912;51.022;3.664;2022-12-13T05:15:23;38.78;;;18.33;;
56043;SDS011;41912;51.022;3.664;2022-12-13T05:17:49;44.65;;;18.25;;
56043;SDS011;41912;51.022;3.664;2022-12-13T05:20:14;41.75;;;17.77;;
56043;SDS011;41912;51.022;3.664;2022-12-13T05:22:40;45.33;;;18.40;;
56043;SDS011;41912;51.022;3.664;2022-12-13T05:25:06;37.63;;;16.92;;
56043;SDS011;41912;51.022;3.664;2022-12-13T05:27:32;38.47;;;16.65;;
56043;SDS011;41912;51.022;3.664;2022-12-13T05:29:57;48.60;;;19.55;;
56043;SDS011;41912;51.022;3.664;2022-12-13T05:32:23;43.83;;;18.20;;
56043;SDS011;41912;51.022;3.664;2022-12-13T05:34:49;39.78;;;18.85;;
56043;SDS011;41912;51.022;3.664;2022-12-13T05:37:14;45.28;;;18.05;;
56043;SDS011;41912;51.022;3.664;2022-12-13T05:39:40;37.90;;;18.58;;
56043;SDS011;41912;51.022;3.664;2022-12-13T05:42:06;37.85;;;16.98;;
56043;SDS011;41912;51.022;3.664;2022-12-13T05:44:31;40.28;;;16.80;;
56043;SDS011;41912;51.022;3.664;2022-12-13T05:46:57;44.13;;;16.98;;
56043;SDS011;41912;51.022;3.664;2022-12-13T05:49:24;38.28;;;17.40;;
56043;SDS011;41912;51.022;3.664;2022-12-13T05:51:49;40.17;;;17.90;;
56043;SDS011;41912;51.022;3.664;2022-12-13T05:54:15;37.03;;;16.35;;
56043;SDS011;41912;51.022;3.664;2022-12-13T05:56:41;38.47;;;16.73;;
56043;SDS011;41912;51.022;3.664;2022-12-13T05:59:06;38.70;;;17.45;;
56043;SDS011;41912;51.022;3.664;2022-12-13T06:01:32;34.83;;;16.48;;
56043;SDS011;41912;51.022;3.664;2022-12-13T06:03:58;35.35;;;17.02;;
56043;SDS011;41912;51.022;3.664;2022-12-13T06:06:23;42.90;;;17.83;;
56043;SDS011;41912;51.022;3.664;2022-12-13T06:08:49;35.25;;;16.17;;
56043;SDS011;41912;51.022;3.664;2022-12-13T06:11:15;37.00;;;16.33;;
56043;SDS011;41912;51.022;3.664;2022-12-13T06:13:41;37.25;;;17.05;;
56043;SDS011;41912;51.022;3.664;2022-12-13T06:16:07;37.20;;;16.55;;
56043;SDS011;41912;51.022;3.664;2022-12-13T06:18:33;36.50;;;16.90;;
56043;SDS011;41912;51.022;3.664;2022-12-13T06:21:00;36.78;;;17.73;;
56043;SDS011;41912;51.022;3.664;2022-12-13T06:23:29;38.22;;;16.90;;
56043;SDS011;41912;51.022;3.664;2022-12-13T06:25:56;33.40;;;15.48;;
56043;SDS011;41912;51.022;3.664;2022-12-13T06:28:24;38.17;;;17.25;;
56043;SDS011;41912;51.022;3.664;2022-12-13T06:30:50;42.20;;;18.90;;
56043;SDS011;41912;51.022;3.664;2022-12-13T06:33:17;36.10;;;16.15;;
56043;SDS011;41912;51.022;3.664;2022-12-13T06:35:45;46.33;;;17.42;;
56043;SDS011;41912;51.022;3.664;2022-12-13T06:38:11;41.03;;;17.42;;
56043;SDS011;41912;51.022;3.664;2022-12-13T06:40:37;42.17;;;16.80;;
56043;SDS011;41912;51.022;3.664;2022-12-13T06:43:04;36.05;;;16.52;;
56043;SDS011;41912;51.022;3.664;2022-12-13T06:45:29;38.30;;;17.02;;
56043;SDS011;41912;51.022;3.664;2022-12-13T06:47:55;36.33;;;16.67;;
56043;SDS011;41912;51.022;3.664;2022-12-13T06:50:21;45.28;;;17.17;;
56043;SDS011;41912;51.022;3.664;2022-12-13T06:52:47;34.67;;;16.13;;
56043;SDS011;41912;51.022;3.664;2022-12-13T06:55:13;41.95;;;16.55;;
56043;SDS011;41912;51.022;3.664;2022-12-13T06:57:39;35.83;;;17.00;;
56043;SDS011;41912;51.022;3.664;2022-12-13T07:00:05;37.33;;;16.95;;
56043;SDS011;41912;51.022;3.664;2022-12-13T07:02:31;37.65;;;16.48;;
56043;SDS011;41912;51.022;3.664;2022-12-13T07:04:57;41.80;;;18.27;;
56043;SDS011;41912;51.022;3.664;2022-12-13T07:07:23;39.08;;;16.45;;
56043;SDS011;41912;51.022;3.664;2022-12-13T07:09:50;35.95;;;17.98;;
56043;SDS011;41912;51.022;3.664;2022-12-13T07:12:15;39.60;;;19.27;;
56043;SDS011;41912;51.022;3.664;2022-12-13T07:14:42;41.55;;;18.10;;
56043;SDS011;41912;51.022;3.664;2022-12-13T07:17:08;41.58;;;17.50;;
56043;SDS011;41912;51.022;3.664;2022-12-13T07:19:34;39.17;;;16.45;;
56043;SDS011;41912;51.022;3.664;2022-12-13T07:22:00;44.80;;;17.38;;
56043;SDS011;41912;51.022;3.664;2022-12-13T07:24:26;34.63;;;16.70;;
56043;SDS011;41912;51.022;3.664;2022-12-13T07:26:51;41.00;;;16.90;;
56043;SDS011;41912;51.022;3.664;2022-12-13T07:29:17;35.90;;;17.00;;
56043;SDS011;41912;51.022;3.664;2022-12-13T07:31:43;38.88;;;17.95;;
56043;SDS011;41912;51.022;3.664;2022-12-13T07:34:09;38.15;;;16.95;;
56043;SDS011;41912;51.022;3.664;2022-12-13T07:36:34;42.70;;;17.05;;
56043;SDS011;41912;51.022;3.664;2022-12-13T07:39:00;40.90;;;17.50;;
56043;SDS011;41912;51.022;3.664;2022-12-13T07:41:26;35.65;;;16.42;;
56043;SDS011;41912;51.022;3.664;2022-12-13T07:43:52;38.55;;;16.10;;
56043;SDS011;41912;51.022;3.664;2022-12-13T07:46:18;39.45;;;17.52;;
56043;SDS011;41912;51.022;3.664;2022-12-13T07:48:44;38.33;;;16.80;;
56043;SDS011;41912;51.022;3.664;2022-12-13T07:51:10;32.20;;;14.50;;
56043;SDS011;41912;51.022;3.664;2022-12-13T07:53:36;34.60;;;16.33;;
56043;SDS011;41912;51.022;3.664;2022-12-13T07:56:06;37.67;;;16.02;;
56043;SDS011;41912;51.022;3.664;2022-12-13T07:58:33;36.97;;;16.17;;
56043;SDS011;41912;51.022;3.664;2022-12-13T08:01:00;32.83;;;16.63;;
56043;SDS011;41912;51.022;3.664;2022-12-13T08:03:29;36.70;;;15.93;;
56043;SDS011;41912;51.022;3.664;2022-12-13T08:05:58;35.63;;;16.70;;
56043;SDS011;41912;51.022;3.664;2022-12-13T08:08:24;41.28;;;16.70;;
56043;SDS011;41912;51.022;3.664;2022-12-13T08:10:50;37.78;;;15.80;;
56043;SDS011;41912;51.022;3.664;2022-12-13T08:13:16;40.47;;;17.35;;
56043;SDS011;41912;51.022;3.664;2022-12-13T08:15:41;37.55;;;17.15;;
56043;SDS011;41912;51.022;3.664;2022-12-13T08:18:07;38.80;;;17.63;;
56043;SDS011;41912;51.022;3.664;2022-12-13T08:20:32;41.08;;;16.70;;
56043;SDS011;41912;51.022;3.664;2022-12-13T08:22:58;40.50;;;16.80;;
56043;SDS011;41912;51.022;3.664;2022-12-13T08:25:25;36.67;;;16.83;;
56043;SDS011;41912;51.022;3.664;2022-12-13T08:27:51;40.70;;;15.93;;
56043;SDS011;41912;51.022;3.664;2022-12-13T08:30:20;40.22;;;16.70;;
56043;SDS011;41912;51.022;3.664;2022-12-13T08:32:48;31.95;;;15.80;;
56043;SDS011;41912;51.022;3.664;2022-12-13T08:35:14;34.35;;;15.93;;
56043;SDS011;41912;51.022;3.664;2022-12-13T08:37:39;37.08;;;15.95;;
56043;SDS011;41912;51.022;3.664;2022-12-13T08:40:05;33.58;;;15.48;;
56043;SDS011;41912;51.022;3.664;2022-12-13T08:42:31;38.47;;;15.80;;
56043;SDS011;41912;51.022;3.664;2022-12-13T08:44:57;38.55;;;16.83;;
56043;SDS011;41912;51.022;3.664;2022-12-13T08:47:24;39.10;;;16.80;;
56043;SDS011;41912;51.022;3.664;2022-12-13T08:49:51;37.72;;;16.40;;
56043;SDS011;41912;51.022;3.664;2022-12-13T08:52:23;33.97;;;16.15;;
56043;SDS011;41912;51.022;3.664;2022-12-13T08:54:49;37.47;;;16.30;;
56043;SDS011;41912;51.022;3.664;2022-12-13T08:57:15;35.55;;;15.00;;
56043;SDS011;41912;51.022;3.664;2022-12-13T08:59:41;40.22;;;17.52;;
56043;SDS011;41912;51.022;3.664;2022-12-13T09:02:09;38.88;;;18.13;;
56043;SDS011;41912;51.022;3.664;2022-12-13T09:04:39;35.00;;;16.48;;
56043;SDS011;41912;51.022;3.664;2022-12-13T09:07:06;34.10;;;16.42;;
56043;SDS011;41912;51.022;3.664;2022-12-13T09:09:32;35.13;;;17.08;;
56043;SDS011;41912;51.022;3.664;2022-12-13T09:11:58;36.95;;;17.90;;
56043;SDS011;41912;51.022;3.664;2022-12-13T09:14:26;34.28;;;15.55;;
56043;SDS011;41912;51.022;3.664;2022-12-13T09:16:52;45.50;;;17.92;;
56043;SDS011;41912;51.022;3.664;2022-12-13T09:19:18;33.55;;;16.58;;
56043;SDS011;41912;51.022;3.664;2022-12-13T09:21:43;43.95;;;18.40;;
56043;SDS011;41912;51.022;3.664;2022-12-13T09:24:09;35.92;;;16.10;;
56043;SDS011;41912;51.022;3.664;2022-12-13T09:26:35;34.38;;;17.23;;
56043;SDS011;41912;51.022;3.664;2022-12-13T09:29:00;39.03;;;17.10;;
56043;SDS011;41912;51.022;3.664;2022-12-13T09:31:26;36.60;;;16.48;;
56043;SDS011;41912;51.022;3.664;2022-12-13T09:33:51;33.85;;;16.55;;
56043;SDS011;41912;51.022;3.664;2022-12-13T09:36:18;38.08;;;16.48;;
56043;SDS011;41912;51.022;3.664;2022-12-13T09:38:45;51.40;;;20.50;;
56043;SDS011;41912;51.022;3.664;2022-12-13T09:43:37;37.53;;;16.60;;
56043;SDS011;41912;51.022;3.664;2022-12-13T09:46:04;34.67;;;16.17;;
56043;SDS011;41912;51.022;3.664;2022-12-13T09:48:35;37.38;;;17.75;;
56043;SDS011;41912;51.022;3.664;2022-12-13T09:51:02;39.50;;;18.13;;
56043;SDS011;41912;51.022;3.664;2022-12-13T09:53:28;40.13;;;17.48;;
56043;SDS011;41912;51.022;3.664;2022-12-13T09:55:53;45.40;;;17.15;;
56043;SDS011;41912;51.022;3.664;2022-12-13T09:58:20;42.83;;;19.13;;
56043;SDS011;41912;51.022;3.664;2022-12-13T10:00:50;37.92;;;17.17;;
56043;SDS011;41912;51.022;3.664;2022-12-13T10:03:19;36.45;;;16.33;;
56043;SDS011;41912;51.022;3.664;2022-12-13T10:08:51;41.78;;;17.95;;
56043;SDS011;41912;51.022;3.664;2022-12-13T10:11:19;43.40;;;18.17;;
56043;SDS011;41912;51.022;3.664;2022-12-13T10:13:58;36.38;;;17.13;;
56043;SDS011;41912;51.022;3.664;2022-12-13T10:18:59;35.00;;;15.88;;
56043;SDS011;41912;51.022;3.664;2022-12-13T10:21:37;40.63;;;16.73;;
56043;SDS011;41912;51.022;3.664;2022-12-13T10:24:25;33.63;;;16.98;;
56043;SDS011;41912;51.022;3.664;2022-12-13T10:27:08;37.95;;;17.60;;
56043;SDS011;41912;51.022;3.664;2022-12-13T10:35:21;44.53;;;18.70;;
56043;SDS011;41912;51.022;3.664;2022-12-13T10:37:49;37.20;;;16.55;;
56043;SDS011;41912;51.022;3.664;2022-12-13T10:40:25;36.67;;;17.33;;
56043;SDS011;41912;51.022;3.664;2022-12-13T10:43:07;44.60;;;16.85;;
56043;SDS011;41912;51.022;3.664;2022-12-13T10:51:11;35.00;;;16.55;;
56043;SDS011;41912;51.022;3.664;2022-12-13T10:53:40;39.65;;;17.10;;
56043;SDS011;41912;51.022;3.664;2022-12-13T10:56:11;41.67;;;16.42;;
56043;SDS011;41912;51.022;3.664;2022-12-13T10:58:40;31.95;;;15.73;;
56043;SDS011;41912;51.022;3.664;2022-12-13T11:01:10;31.67;;;15.77;;
56043;SDS011;41912;51.022;3.664;2022-12-13T11:04:19;35.88;;;16.55;;
56043;SDS011;41912;51.022;3.664;2022-12-13T11:06:53;37.80;;;17.15;;
56043;SDS011;41912;51.022;3.664;2022-12-13T11:09:25;32.65;;;15.32;;
56043;SDS011;41912;51.022;3.664;2022-12-13T11:11:51;34.35;;;16.70;;
56043;SDS011;41912;51.022;3.664;2022-12-13T11:14:19;34.40;;;16.83;;
56043;SDS011;41912;51.022;3.664;2022-12-13T11:16:48;34.13;;;14.82;;
56043;SDS011;41912;51.022;3.664;2022-12-13T11:21:58;37.25;;;16.58;;
56043;SDS011;41912;51.022;3.664;2022-12-13T11:24:48;32.33;;;14.75;;
56043;SDS011;41912;51.022;3.664;2022-12-13T11:30:09;34.40;;;15.38;;
56043;SDS011;41912;51.022;3.664;2022-12-13T11:33:08;34.38;;;16.70;;
56043;SDS011;41912;51.022;3.664;2022-12-13T11:39:15;32.40;;;15.68;;
56043;SDS011;41912;51.022;3.664;2022-12-13T11:41:52;34.20;;;15.93;;
56043;SDS011;41912;51.022;3.664;2022-12-13T11:47:12;36.47;;;17.17;;
56043;SDS011;41912;51.022;3.664;2022-12-13T11:49:43;38.42;;;17.30;;
56043;SDS011;41912;51.022;3.664;2022-12-13T11:57:12;34.40;;;16.55;;
56043;SDS011;41912;51.022;3.664;2022-12-13T12:00:04;32.53;;;16.00;;
56043;SDS011;41912;51.022;3.664;2022-12-13T12:02:38;33.60;;;16.40;;
56043;SDS011;41912;51.022;3.664;2022-12-13T12:05:13;32.97;;;15.15;;
56043;SDS011;41912;51.022;3.664;2022-12-13T12:07:48;32.95;;;16.15;;
56043;SDS011;41912;51.022;3.664;2022-12-13T12:10:35;33.58;;;15.43;;
56043;SDS011;41912;51.022;3.664;2022-12-13T12:13:15;31.27;;;16.38;;
56043;SDS011;41912;51.022;3.664;2022-12-13T12:18:36;35.47;;;16.17;;
56043;SDS011;41912;51.022;3.664;2022-12-13T12:21:06;30.65;;;15.70;;
56043;SDS011;41912;51.022;3.664;2022-12-13T12:26:06;33.03;;;15.68;;
56043;SDS011;41912;51.022;3.664;2022-12-13T12:31:06;33.83;;;15.07;;
56043;SDS011;41912;51.022;3.664;2022-12-13T12:41:38;35.25;;;17.00;;
56043;SDS011;41912;51.022;3.664;2022-12-13T12:44:22;34.38;;;16.33;;
56043;SDS011;41912;51.022;3.664;2022-12-13T12:52:32;38.28;;;16.70;;
56043;SDS011;41912;51.022;3.664;2022-12-13T12:58:16;36.38;;;14.95;;
56043;SDS011;41912;51.022;3.664;2022-12-13T13:03:54;37.33;;;16.80;;
56043;SDS011;41912;51.022;3.664;2022-12-13T13:08:56;33.15;;;15.57;;
56043;SDS011;41912;51.022;3.664;2022-12-13T13:11:26;37.25;;;14.65;;
56043;SDS011;41912;51.022;3.664;2022-12-13T13:18:51;40.28;;;17.52;;
56043;SDS011;41912;51.022;3.664;2022-12-13T13:24:33;36.92;;;16.02;;
56043;SDS011;41912;51.022;3.664;2022-12-13T13:34:52;34.75;;;16.50;;
56043;SDS011;41912;51.022;3.664;2022-12-13T13:37:54;31.80;;;15.38;;
56043;SDS011;41912;51.022;3.664;2022-12-13T13:45:29;31.70;;;15.32;;
56043;SDS011;41912;51.022;3.664;2022-12-13T13:56:44;32.65;;;15.40;;
56043;SDS011;41912;51.022;3.664;2022-12-13T14:04:51;32.80;;;16.45;;
56043;SDS011;41912;51.022;3.664;2022-12-13T14:29:15;34.95;;;16.33;;
56043;SDS011;41912;51.022;3.664;2022-12-13T14:31:46;38.28;;;16.08;;
56043;SDS011;41912;51.022;3.664;2022-12-13T14:34:23;35.78;;;15.20;;
56043;SDS011;41912;51.022;3.664;2022-12-13T14:39:27;38.30;;;16.58;;
56043;SDS011;41912;51.022;3.664;2022-12-13T14:41:56;34.63;;;15.43;;
56043;SDS011;41912;51.022;3.664;2022-12-13T14:46:58;38.85;;;16.67;;
56043;SDS011;41912;51.022;3.664;2022-12-13T14:49:27;35.15;;;17.75;;
56043;SDS011;41912;51.022;3.664;2022-12-13T14:51:56;40.88;;;18.42;;
56043;SDS011;41912;51.022;3.664;2022-12-13T14:54:30;41.63;;;16.77;;
56043;SDS011;41912;51.022;3.664;2022-12-13T14:57:21;32.28;;;16.35;;
56043;SDS011;41912;51.022;3.664;2022-12-13T14:59:48;36.78;;;16.48;;
56043;SDS011;41912;51.022;3.664;2022-12-13T15:02:18;35.20;;;15.77;;
56043;SDS011;41912;51.022;3.664;2022-12-13T15:04:46;30.85;;;15.35;;
56043;SDS011;41912;51.022;3.664;2022-12-13T15:12:46;30.85;;;14.68;;
56043;SDS011;41912;51.022;3.664;2022-12-13T15:20:48;32.13;;;15.27;;
56043;SDS011;41912;51.022;3.664;2022-12-13T15:23:23;34.20;;;15.02;;
56043;SDS011;41912;51.022;3.664;2022-12-13T15:28:33;37.13;;;15.05;;
56043;SDS011;41912;51.022;3.664;2022-12-13T15:31:00;55.53;;;18.98;;
56043;SDS011;41912;51.022;3.664;2022-12-13T15:33:30;38.50;;;17.60;;
56043;SDS011;41912;51.022;3.664;2022-12-13T15:36:39;54.28;;;21.13;;
56043;SDS011;41912;51.022;3.664;2022-12-13T15:41:29;59.70;;;23.48;;
56043;SDS011;41912;51.022;3.664;2022-12-13T15:43:59;54.95;;;21.55;;
56043;SDS011;41912;51.022;3.664;2022-12-13T15:46:32;53.15;;;21.33;;
56043;SDS011;41912;51.022;3.664;2022-12-13T15:49:03;52.70;;;18.10;;
56043;SDS011;41912;51.022;3.664;2022-12-13T15:51:52;40.72;;;17.58;;
56043;SDS011;41912;51.022;3.664;2022-12-13T15:54:22;33.28;;;16.08;;
56043;SDS011;41912;51.022;3.664;2022-12-13T15:59:41;35.00;;;17.38;;
56043;SDS011;41912;51.022;3.664;2022-12-13T16:02:19;41.67;;;18.75;;
56043;SDS011;41912;51.022;3.664;2022-12-13T16:04:46;35.15;;;16.52;;
56043;SDS011;41912;51.022;3.664;2022-12-13T16:07:55;42.60;;;17.65;;
56043;SDS011;41912;51.022;3.664;2022-12-13T16:10:05;35.73;;;16.57;;
56043;SDS011;41912;51.022;3.664;2022-12-13T16:12:42;38.33;;;18.25;;
56043;SDS011;41912;51.022;3.664;2022-12-13T16:15:21;42.08;;;20.80;;
56043;SDS011;41912;51.022;3.664;2022-12-13T16:17:52;64.88;;;27.55;;
56043;SDS011;41912;51.022;3.664;2022-12-13T16:20:21;71.72;;;30.73;;
56043;SDS011;41912;51.022;3.664;2022-12-13T16:22:47;72.55;;;32.50;;
56043;SDS011;41912;51.022;3.664;2022-12-13T16:25:15;75.38;;;31.17;;
56043;SDS011;41912;51.022;3.664;2022-12-13T16:27:42;67.18;;;29.55;;
56043;SDS011;41912;51.022;3.664;2022-12-13T16:30:12;67.70;;;30.25;;
56043;SDS011;41912;51.022;3.664;2022-12-13T16:32:38;78.53;;;34.45;;
56043;SDS011;41912;51.022;3.664;2022-12-13T16:35:04;86.18;;;37.22;;
56043;SDS011;41912;51.022;3.664;2022-12-13T16:37:30;91.40;;;39.25;;
56043;SDS011;41912;51.022;3.664;2022-12-13T16:39:56;82.97;;;38.60;;
56043;SDS011;41912;51.022;3.664;2022-12-13T16:42:22;89.50;;;39.28;;
56043;SDS011;41912;51.022;3.664;2022-12-13T16:44:49;71.30;;;32.08;;
56043;SDS011;41912;51.022;3.664;2022-12-13T16:47:15;64.65;;;30.70;;
56043;SDS011;41912;51.022;3.664;2022-12-13T16:49:41;61.20;;;30.27;;
56043;SDS011;41912;51.022;3.664;2022-12-13T16:52:06;67.07;;;31.23;;
56043;SDS011;41912;51.022;3.664;2022-12-13T16:54:32;78.93;;;33.67;;
56043;SDS011;41912;51.022;3.664;2022-12-13T16:56:58;65.03;;;28.98;;
56043;SDS011;41912;51.022;3.664;2022-12-13T16:59:24;64.05;;;28.27;;
56043;SDS011;41912;51.022;3.664;2022-12-13T17:01:51;55.60;;;22.83;;
56043;SDS011;41912;51.022;3.664;2022-12-13T17:04:20;55.25;;;23.35;;
56043;SDS011;41912;51.022;3.664;2022-12-13T17:06:48;51.83;;;23.52;;
56043;SDS011;41912;51.022;3.664;2022-12-13T17:09:14;54.60;;;23.75;;
56043;SDS011;41912;51.022;3.664;2022-12-13T17:11:40;63.50;;;23.77;;
56043;SDS011;41912;51.022;3.664;2022-12-13T17:14:06;48.63;;;23.80;;
56043;SDS011;41912;51.022;3.664;2022-12-13T17:16:31;64.57;;;26.88;;
56043;SDS011;41912;51.022;3.664;2022-12-13T17:18:57;61.88;;;25.77;;
56043;SDS011;41912;51.022;3.664;2022-12-13T17:21:23;70.15;;;29.95;;
56043;SDS011;41912;51.022;3.664;2022-12-13T17:23:56;72.10;;;31.70;;
56043;SDS011;41912;51.022;3.664;2022-12-13T17:26:24;64.88;;;28.45;;